Time;durP1;ratioP1;P1;durP2;ratioP2;P2;SDS_P1;SDS_P2;PMS_P1;PMS_P2;Temp;Humidity;BMP_temperature;BMP_pressure;BME280_temperature;BME280_humidity;BME280_pressure;Samples;Min_cycle;Max_cycle;Signal;HPM_P1;HPM_P2
2021/06/04 00:01:14;;;;;;;7.68;1.92;;;15.70;66.40;;;;;;5095444;28;20047;-70
2021/06/04 00:03:42;;;;;;;6.30;1.73;;;15.70;66.30;;;;;;5094187;28;20059;-69
2021/06/04 00:06:12;;;;;;;6.13;1.50;;;15.70;66.10;;;;;;5084425;28;20057;-69
2021/06/04 00:08:40;;;;;;;9.27;2.10;;;15.70;65.90;;;;;;5083863;28;20048;-71
2021/06/04 00:11:32;;;;;;;8.63;1.60;;;15.60;65.90;;;;;;5096205;28;20056;-70
2021/06/04 00:14:27;;;;;;;4.68;1.40;;;15.60;66.00;;;;;;5089415;28;20044;-70
2021/06/04 00:17:01;;;;;;;8.23;1.40;;;15.60;66.00;;;;;;5078422;28;20052;-70
2021/06/04 00:19:32;;;;;;;4.07;1.27;;;15.60;66.00;;;;;;5096104;28;20048;-71
2021/06/04 00:22:10;;;;;;;5.60;1.50;;;15.60;66.00;;;;;;5093694;28;20052;-70
2021/06/04 00:24:41;;;;;;;6.45;1.88;;;15.60;66.00;;;;;;5077719;28;20386;-70
2021/06/04 00:27:11;;;;;;;6.05;1.45;;;15.50;66.00;;;;;;5078245;28;20056;-70
2021/06/04 00:29:42;;;;;;;6.18;1.50;;;15.50;66.00;;;;;;5075853;28;20057;-71
2021/06/04 00:32:11;;;;;;;5.05;1.63;;;15.50;66.20;;;;;;5093072;28;20055;-69
2021/06/04 00:34:41;;;;;;;10.68;1.90;;;15.40;66.30;;;;;;5084132;28;20051;-71
2021/06/04 00:37:10;;;;;;;7.38;1.60;;;15.40;66.20;;;;;;5086719;28;20517;-70
2021/06/04 00:39:40;;;;;;;6.35;1.50;;;15.30;66.10;;;;;;5075855;28;20060;-70
2021/06/04 00:42:13;;;;;;;4.57;1.55;;;15.30;65.90;;;;;;5079251;28;20052;-71
2021/06/04 00:44:41;;;;;;;9.55;2.10;;;15.30;65.70;;;;;;5082404;28;20056;-70
2021/06/04 00:47:09;;;;;;;6.57;1.13;;;15.30;65.60;;;;;;5084454;28;20052;-71
2021/06/04 00:49:38;;;;;;;3.03;0.95;;;15.20;65.40;;;;;;5074224;28;20052;-70
2021/06/04 00:52:17;;;;;;;8.40;1.67;;;15.20;65.30;;;;;;5057671;28;20056;-71
2021/06/04 01:08:58;;;;;;;6.50;1.35;;;14.90;65.30;;;;;;5172174;22;20042;-69
2021/06/04 01:11:46;;;;;;;7.68;1.42;;;14.90;65.40;;;;;;4992075;28;20057;-69
2021/06/04 01:14:37;;;;;;;10.00;1.90;;;14.90;65.50;;;;;;5002651;28;20046;-70
2021/06/04 01:17:22;;;;;;;3.67;1.23;;;14.90;65.50;;;;;;4994898;28;20058;-70
2021/06/04 01:20:33;;;;;;;10.15;1.75;;;14.90;65.50;;;;;;4977924;28;20054;-70
2021/06/04 01:23:37;;;;;;;8.23;1.10;;;14.80;65.50;;;;;;4941606;28;20062;-70
2021/06/04 01:26:13;;;;;;;4.88;1.17;;;14.80;65.50;;;;;;4990032;28;20057;-70
2021/06/04 01:28:51;;;;;;;6.40;1.40;;;14.80;65.40;;;;;;4993651;28;20050;-69
2021/06/04 01:31:50;;;;;;;6.38;1.42;;;14.80;65.40;;;;;;4994629;28;20058;-70
2021/06/04 01:34:20;;;;;;;5.20;1.10;;;14.80;65.60;;;;;;4993905;28;20054;-71
2021/06/04 01:37:05;;;;;;;5.38;1.70;;;14.80;65.70;;;;;;4994818;28;20069;-70
2021/06/04 01:39:53;;;;;;;5.28;1.35;;;14.80;65.70;;;;;;4995936;28;20058;-71
2021/06/04 01:42:29;;;;;;;9.65;1.60;;;14.80;65.70;;;;;;4993622;28;20042;-70
2021/06/04 01:45:07;;;;;;;8.27;1.30;;;14.80;65.60;;;;;;4974566;28;20051;-70
2021/06/04 01:47:40;;;;;;;6.25;1.58;;;14.80;65.50;;;;;;4986864;28;20073;-70
2021/06/04 01:50:16;;;;;;;8.00;1.92;;;14.80;65.50;;;;;;4996851;28;20061;-71
2021/06/04 01:52:47;;;;;;;7.68;1.48;;;14.80;65.50;;;;;;4995343;28;20055;-70
2021/06/04 01:55:27;;;;;;;6.97;1.33;;;14.80;65.40;;;;;;4993583;28;20046;-70
2021/06/04 01:58:08;;;;;;;8.93;1.58;;;14.80;65.40;;;;;;4995056;28;20050;-70
2021/06/04 02:00:48;;;;;;;5.22;1.40;;;14.80;65.20;;;;;;4993845;28;20380;-70
2021/06/04 02:03:20;;;;;;;6.78;1.48;;;14.80;65.30;;;;;;5010557;28;20050;-71
2021/06/04 02:05:59;;;;;;;6.35;1.15;;;14.80;65.20;;;;;;4993790;28;20065;-71
2021/06/04 02:08:50;;;;;;;9.65;1.77;;;14.70;64.90;;;;;;4993598;28;20368;-70
2021/06/04 02:11:30;;;;;;;7.85;1.35;;;14.80;64.90;;;;;;4993592;28;20166;-70
2021/06/04 02:14:07;;;;;;;6.38;1.30;;;14.80;65.00;;;;;;4992545;28;20042;-69
2021/06/04 02:16:59;;;;;;;10.05;1.63;;;14.80;65.00;;;;;;4993705;28;20050;-70
2021/06/04 02:19:54;;;;;;;4.30;1.40;;;14.70;65.20;;;;;;4995007;28;20051;-70
2021/06/04 02:22:58;;;;;;;4.30;1.30;;;14.70;65.40;;;;;;4993692;28;20060;-70
2021/06/04 02:25:45;;;;;;;6.63;1.27;;;14.70;65.40;;;;;;4989688;28;20069;-71
2021/06/04 02:28:28;;;;;;;9.23;1.48;;;14.70;65.40;;;;;;4988923;28;20054;-71
2021/06/04 02:31:13;;;;;;;6.05;1.30;;;14.70;65.40;;;;;;4983083;28;20054;-71
2021/06/04 02:33:49;;;;;;;5.45;1.50;;;14.60;65.40;;;;;;5009908;28;20077;-70
2021/06/04 02:36:25;;;;;;;6.05;1.30;;;14.60;65.50;;;;;;4994315;28;20050;-70
2021/06/04 02:39:12;;;;;;;4.82;1.20;;;14.60;65.60;;;;;;4992409;28;20375;-71
2021/06/04 02:41:47;;;;;;;6.32;1.30;;;14.60;65.70;;;;;;5004822;28;20046;-70
2021/06/04 02:44:26;;;;;;;6.00;1.40;;;14.50;65.60;;;;;;4997100;28;20054;-71
2021/06/04 02:47:01;;;;;;;7.35;1.52;;;14.50;65.60;;;;;;4996872;28;20350;-70
2021/06/04 02:49:34;;;;;;;8.25;1.52;;;14.50;65.80;;;;;;4992489;28;20054;-70
2021/06/04 02:52:34;;;;;;;4.00;1.30;;;14.40;65.90;;;;;;4997449;28;20061;-71
2021/06/04 02:55:09;;;;;;;9.30;1.48;;;14.40;66.30;;;;;;4995857;28;20065;-70
2021/06/04 02:57:39;;;;;;;9.82;1.85;;;14.40;66.40;;;;;;4997232;28;20053;-71
2021/06/04 03:00:21;;;;;;;5.53;1.27;;;14.30;66.50;;;;;;4996632;28;20062;-71
2021/06/04 03:02:51;;;;;;;7.28;1.20;;;14.30;66.70;;;;;;4997345;28;20038;-70
2021/06/04 03:05:30;;;;;;;11.10;1.55;;;14.30;66.70;;;;;;4996535;28;20065;-70
2021/06/04 03:08:00;;;;;;;6.00;1.60;;;14.30;66.90;;;;;;4999139;28;20068;-69
2021/06/04 03:10:33;;;;;;;7.00;1.65;;;14.20;66.90;;;;;;5016778;28;20376;-70
2021/06/04 03:13:06;;;;;;;6.15;1.80;;;14.20;67.00;;;;;;5016252;28;20067;-70
2021/06/04 03:15:40;;;;;;;6.50;1.50;;;14.10;67.00;;;;;;5008362;28;20045;-70
2021/06/04 03:18:21;;;;;;;8.43;1.60;;;14.00;67.00;;;;;;4997179;28;20049;-70
2021/06/04 03:20:50;;;;;;;5.75;1.48;;;14.00;67.00;;;;;;4997163;28;20376;-71
2021/06/04 03:23:23;;;;;;;8.50;1.40;;;13.90;67.00;;;;;;4998313;28;20061;-71
2021/06/04 03:25:54;;;;;;;8.43;1.75;;;13.90;67.10;;;;;;5003090;28;20045;-70
2021/06/04 03:28:25;;;;;;;7.32;1.80;;;13.80;67.00;;;;;;5015244;28;20057;-69
2021/06/04 03:30:54;;;;;;;5.13;1.50;;;13.80;67.10;;;;;;5013604;28;20072;-70
2021/06/04 03:33:33;;;;;;;7.13;1.92;;;13.80;67.10;;;;;;5016117;28;20371;-71
2021/06/04 03:36:15;;;;;;;11.07;1.88;;;13.80;67.10;;;;;;5016874;28;20062;-70
2021/06/04 03:38:45;;;;;;;11.25;1.80;;;13.80;67.20;;;;;;5005212;28;20050;-70
2021/06/04 03:41:17;;;;;;;4.55;1.33;;;13.80;67.10;;;;;;4973546;28;20054;-70
2021/06/04 03:43:48;;;;;;;12.48;1.90;;;13.60;67.10;;;;;;4986705;28;20050;-71
2021/06/04 03:46:18;;;;;;;4.75;1.50;;;13.60;67.20;;;;;;5009234;28;20057;-71
2021/06/04 03:48:48;;;;;;;9.77;1.58;;;13.60;67.20;;;;;;5006631;28;20050;-71
2021/06/04 03:51:22;;;;;;;6.70;1.30;;;13.50;67.20;;;;;;5005950;28;20049;-70
2021/06/04 03:53:51;;;;;;;4.82;1.25;;;13.40;67.30;;;;;;4998051;28;20476;-70
2021/06/04 03:56:24;;;;;;;7.82;1.58;;;13.30;67.30;;;;;;4996423;28;20058;-70
2021/06/04 03:58:54;;;;;;;8.20;1.52;;;13.30;67.40;;;;;;4997310;28;20371;-70
2021/06/04 04:01:37;;;;;;;6.07;1.38;;;13.30;67.50;;;;;;4997793;28;20486;-70
2021/06/04 04:04:06;;;;;;;6.65;1.77;;;13.30;67.40;;;;;;4995031;28;20058;-69
2021/06/04 04:06:34;;;;;;;11.38;1.88;;;13.30;67.40;;;;;;5007771;28;20061;-70
2021/06/04 04:09:05;;;;;;;8.65;1.50;;;13.30;67.30;;;;;;5007529;28;20062;-71
2021/06/04 04:11:34;;;;;;;6.72;1.50;;;13.30;67.30;;;;;;5015800;28;20045;-70
2021/06/04 04:14:03;;;;;;;5.95;1.58;;;13.20;67.30;;;;;;5004600;28;20049;-69
2021/06/04 04:16:31;;;;;;;5.65;1.65;;;13.20;67.20;;;;;;5013145;28;20503;-71
2021/06/04 04:19:00;;;;;;;4.80;1.70;;;13.10;67.10;;;;;;5016076;28;20069;-70
2021/06/04 04:21:29;;;;;;;4.88;1.73;;;13.10;67.10;;;;;;5019347;28;20594;-70
2021/06/04 04:24:00;;;;;;;9.07;1.40;;;13.00;67.20;;;;;;5016421;28;20065;-70
2021/06/04 04:26:32;;;;;;;5.43;1.55;;;13.00;67.40;;;;;;5015878;28;20418;-71
2021/06/04 04:29:02;;;;;;;5.30;1.73;;;13.00;67.40;;;;;;5015091;28;20061;-70
2021/06/04 04:31:33;;;;;;;5.45;1.70;;;12.90;67.50;;;;;;4991500;28;20061;-70
2021/06/04 04:34:05;;;;;;;3.07;1.30;;;12.90;67.60;;;;;;5014690;28;20058;-70
2021/06/04 04:36:39;;;;;;;7.10;1.55;;;12.80;67.70;;;;;;5025439;28;20057;-70
2021/06/04 04:39:12;;;;;;;5.40;1.45;;;12.80;67.80;;;;;;5013560;28;20053;-69
2021/06/04 04:41:41;;;;;;;5.38;1.70;;;12.80;67.80;;;;;;5013885;28;20065;-71
2021/06/04 04:44:10;;;;;;;7.05;1.67;;;12.90;67.90;;;;;;5014926;28;20513;-70
2021/06/04 04:46:38;;;;;;;4.72;1.63;;;12.90;68.00;;;;;;5015967;28;20120;-69
2021/06/04 04:49:06;;;;;;;6.53;1.63;;;12.90;68.00;;;;;;5012673;28;20058;-71
2021/06/04 04:51:36;;;;;;;6.03;1.70;;;12.90;67.90;;;;;;5014988;28;20387;-70
2021/06/04 04:54:05;;;;;;;7.22;1.48;;;12.90;67.90;;;;;;5014796;28;20065;-70
2021/06/04 04:56:33;;;;;;;4.65;1.30;;;12.90;67.90;;;;;;5014705;28;20383;-70
2021/06/04 04:59:03;;;;;;;7.78;1.67;;;12.90;67.90;;;;;;5015198;28;20041;-70
2021/06/04 05:01:31;;;;;;;7.13;1.83;;;12.90;67.80;;;;;;5013098;28;20463;-70
2021/06/04 05:03:59;;;;;;;11.75;1.55;;;12.80;67.90;;;;;;5003210;28;20050;-70
2021/06/04 05:06:27;;;;;;;5.57;1.20;;;12.80;67.90;;;;;;5015455;28;20053;-70
2021/06/04 05:08:55;;;;;;;5.00;1.67;;;12.80;68.00;;;;;;5013776;28;20050;-71
2021/06/04 05:11:23;;;;;;;8.80;1.58;;;12.80;68.10;;;;;;5014628;28;20390;-71
2021/06/04 05:13:52;;;;;;;4.82;1.48;;;12.80;68.20;;;;;;5002780;28;20050;-70
2021/06/04 05:16:20;;;;;;;6.15;1.45;;;12.80;68.10;;;;;;5015463;28;20065;-70
2021/06/04 05:18:48;;;;;;;6.65;1.70;;;12.80;68.10;;;;;;5014959;28;20050;-71
2021/06/04 05:21:18;;;;;;;6.70;1.60;;;12.80;68.10;;;;;;5014044;28;20054;-71
2021/06/04 05:23:46;;;;;;;5.97;1.80;;;12.80;68.20;;;;;;5013924;28;20056;-70
2021/06/04 05:26:14;;;;;;;7.20;1.52;;;12.80;68.40;;;;;;5014896;28;20463;-70
2021/06/04 05:28:42;;;;;;;6.15;1.58;;;12.80;68.50;;;;;;5007546;28;20058;-69
2021/06/04 05:31:12;;;;;;;7.85;1.58;;;12.70;68.60;;;;;;5014819;28;20061;-70
2021/06/04 05:33:43;;;;;;;8.07;1.60;;;12.70;68.60;;;;;;5013105;28;20471;-70
2021/06/04 05:36:33;;;;;;;8.98;1.60;;;12.70;68.40;;;;;;5014589;28;20052;-69
2021/06/04 05:39:08;;;;;;;6.80;1.45;;;12.60;68.10;;;;;;5001520;28;20361;-70
2021/06/04 05:41:38;;;;;;;7.68;1.20;;;12.60;67.90;;;;;;5001024;28;20428;-69
2021/06/04 05:44:18;;;;;;;7.63;1.35;;;12.60;67.60;;;;;;4994887;28;20054;-70
2021/06/04 05:46:51;;;;;;;7.90;1.45;;;12.70;67.60;;;;;;5008020;28;20058;-71
2021/06/04 05:49:21;;;;;;;7.57;1.63;;;12.70;67.50;;;;;;5006192;28;20054;-70
2021/06/04 05:51:51;;;;;;;9.38;1.58;;;12.70;67.40;;;;;;5014540;28;20053;-70
2021/06/04 05:54:20;;;;;;;6.47;1.50;;;12.70;67.60;;;;;;5013732;28;20361;-71
2021/06/04 05:56:48;;;;;;;8.93;1.50;;;12.70;67.80;;;;;;5013680;28;20502;-71
2021/06/04 05:59:16;;;;;;;7.88;1.60;;;12.80;67.80;;;;;;5019109;28;20054;-71
2021/06/04 06:01:46;;;;;;;12.30;1.50;;;12.80;67.50;;;;;;5012377;28;20049;-70
2021/06/04 06:04:16;;;;;;;9.25;1.58;;;12.80;67.30;;;;;;5011255;28;20054;-70
2021/06/04 06:06:44;;;;;;;7.68;1.38;;;12.80;67.40;;;;;;5005933;28;20061;-71
2021/06/04 06:09:12;;;;;;;2.95;1.00;;;12.80;67.30;;;;;;5011741;28;20050;-70
2021/06/04 06:11:41;;;;;;;3.67;1.20;;;12.80;67.10;;;;;;5012911;28;20125;-71
2021/06/04 06:14:09;;;;;;;5.20;1.20;;;12.80;66.90;;;;;;4995757;28;20060;-70
2021/06/04 06:16:38;;;;;;;4.70;1.10;;;12.80;66.70;;;;;;5014118;28;20050;-69
2021/06/04 06:19:08;;;;;;;6.05;1.00;;;12.80;66.60;;;;;;5002910;28;20061;-70
2021/06/04 06:21:38;;;;;;;4.00;1.00;;;12.90;66.40;;;;;;5010702;28;20054;-71
2021/06/04 06:24:06;;;;;;;7.55;1.33;;;12.90;66.30;;;;;;5008998;28;20057;-70
2021/06/04 06:26:35;;;;;;;10.43;1.27;;;12.90;66.20;;;;;;5017495;28;20041;-70
2021/06/04 06:29:04;;;;;;;5.07;1.10;;;13.00;66.00;;;;;;5017140;28;20054;-70
2021/06/04 06:31:35;;;;;;;6.85;1.30;;;13.00;65.80;;;;;;5016474;28;20472;-70
2021/06/04 06:34:06;;;;;;;6.15;1.10;;;13.00;65.70;;;;;;5016124;28;20061;-70
2021/06/04 06:36:37;;;;;;;6.13;1.00;;;13.00;65.60;;;;;;5015694;28;20046;-70
2021/06/04 06:39:13;;;;;;;8.38;1.27;;;13.00;65.50;;;;;;5016100;28;20053;-70
2021/06/04 06:41:43;;;;;;;4.95;1.30;;;13.10;65.40;;;;;;5015470;28;20058;-70
2021/06/04 06:44:13;;;;;;;4.75;1.13;;;13.00;65.50;;;;;;5015050;28;20058;-70
2021/06/04 06:46:42;;;;;;;5.88;1.35;;;13.00;65.60;;;;;;5017259;28;20064;-71
2021/06/04 06:49:11;;;;;;;8.55;1.25;;;13.10;65.60;;;;;;5003765;28;20046;-69
2021/06/04 06:51:39;;;;;;;5.63;1.00;;;13.10;65.50;;;;;;5016363;28;20045;-71
2021/06/04 06:54:15;;;;;;;7.05;1.08;;;13.10;65.40;;;;;;5014106;28;20045;-70
2021/06/04 06:56:46;;;;;;;3.22;0.68;;;13.20;65.20;;;;;;5015397;28;20054;-70
2021/06/04 06:59:15;;;;;;;4.72;0.88;;;13.20;65.10;;;;;;5014882;28;20345;-69
2021/06/04 07:01:43;;;;;;;5.38;1.00;;;13.20;65.00;;;;;;5014880;28;20062;-70
2021/06/04 07:04:12;;;;;;;3.70;0.77;;;13.30;65.00;;;;;;5016303;28;20080;-70
2021/06/04 07:06:41;;;;;;;4.07;0.93;;;13.30;64.90;;;;;;4983958;28;20046;-70
2021/06/04 07:09:12;;;;;;;3.83;0.88;;;13.30;64.90;;;;;;5015638;28;20050;-70
2021/06/04 07:11:49;;;;;;;3.40;1.13;;;13.30;64.80;;;;;;5017350;28;20053;-69
2021/06/04 07:14:21;;;;;;;6.60;0.90;;;13.40;64.80;;;;;;5016188;28;20057;-71
2021/06/04 07:16:49;;;;;;;5.90;1.10;;;13.40;64.90;;;;;;5016700;28;20054;-70
2021/06/04 07:19:17;;;;;;;4.25;0.98;;;13.40;64.90;;;;;;5017574;28;20061;-70
2021/06/04 07:21:46;;;;;;;6.68;0.90;;;13.50;64.80;;;;;;5016054;28;20053;-69
2021/06/04 07:24:14;;;;;;;4.88;1.13;;;13.50;64.50;;;;;;5016586;28;20049;-70
2021/06/04 07:26:45;;;;;;;6.60;0.85;;;13.50;64.40;;;;;;5015990;28;20057;-70
2021/06/04 07:29:15;;;;;;;4.03;0.80;;;13.60;64.00;;;;;;5017475;28;20073;-71
2021/06/04 07:31:43;;;;;;;6.18;1.17;;;13.60;63.50;;;;;;5015582;28;20475;-71
2021/06/04 07:34:12;;;;;;;4.97;0.90;;;13.60;63.20;;;;;;5015768;28;20054;-70
2021/06/04 07:36:45;;;;;;;4.65;0.93;;;13.70;63.20;;;;;;5015593;28;20068;-70
2021/06/04 07:39:16;;;;;;;12.32;1.42;;;13.70;62.80;;;;;;5016291;28;20045;-71
2021/06/04 07:41:46;;;;;;;6.93;0.70;;;13.80;62.70;;;;;;5016193;28;20058;-70
2021/06/04 07:44:15;;;;;;;2.78;0.70;;;13.80;62.60;;;;;;4999295;28;20042;-70
2021/06/04 07:46:45;;;;;;;7.00;0.70;;;13.90;62.60;;;;;;4983440;28;20062;-71
2021/06/04 07:49:14;;;;;;;4.22;0.93;;;13.90;62.30;;;;;;5016118;28;20064;-69
2021/06/04 07:51:47;;;;;;;2.50;0.55;;;14.00;61.70;;;;;;5016215;28;20073;-69
2021/06/04 07:54:19;;;;;;;5.32;0.68;;;14.00;61.20;;;;;;5016393;28;20054;-70
2021/06/04 07:56:47;;;;;;;2.47;0.80;;;14.00;61.00;;;;;;5017121;28;20054;-71
2021/06/04 07:59:16;;;;;;;4.95;0.85;;;14.10;60.80;;;;;;5016278;28;20460;-69
2021/06/04 08:01:44;;;;;;;2.22;0.38;;;14.10;60.90;;;;;;5015685;28;20042;-69
2021/06/04 08:04:13;;;;;;;4.63;0.82;;;14.10;60.70;;;;;;5015757;28;20065;-71
2021/06/04 08:06:41;;;;;;;4.47;0.60;;;14.10;60.70;;;;;;4998900;28;20053;-71
2021/06/04 08:09:12;;;;;;;4.15;0.75;;;14.20;61.00;;;;;;4998266;28;20062;-70
2021/06/04 08:11:55;;;;;;;3.33;0.60;;;14.20;60.90;;;;;;4999459;28;20076;-70
2021/06/04 08:14:30;;;;;;;6.45;0.88;;;14.30;60.40;;;;;;5014743;28;20070;-70
2021/06/04 08:16:58;;;;;;;3.40;0.52;;;14.30;60.00;;;;;;5015526;28;20058;-70
2021/06/04 08:19:30;;;;;;;2.83;0.60;;;14.30;59.80;;;;;;4998920;28;20045;-70
2021/06/04 08:21:58;;;;;;;3.40;0.73;;;14.30;59.40;;;;;;4978608;28;20480;-70
2021/06/04 08:24:30;;;;;;;4.00;0.80;;;14.40;59.40;;;;;;4995858;28;20046;-70
2021/06/04 08:27:01;;;;;;;2.72;0.73;;;14.40;59.40;;;;;;4978771;28;20051;-70
2021/06/04 08:29:31;;;;;;;5.65;0.75;;;14.50;59.30;;;;;;4996190;28;20054;-71
2021/06/04 08:32:00;;;;;;;3.30;0.57;;;14.50;59.30;;;;;;4963616;28;20050;-71
2021/06/04 08:34:28;;;;;;;3.03;0.65;;;14.50;58.90;;;;;;4977993;28;20061;-71
2021/06/04 08:36:57;;;;;;;5.57;0.52;;;14.60;58.60;;;;;;4978467;28;20061;-71
2021/06/04 08:39:32;;;;;;;2.67;0.63;;;14.60;58.60;;;;;;4996277;28;20061;-70
2021/06/04 08:42:03;;;;;;;4.18;0.70;;;14.60;58.90;;;;;;4978247;28;20047;-70
2021/06/04 08:45:12;;;;;;;4.60;0.80;;;14.60;59.00;;;;;;4996561;28;20082;-70
2021/06/04 08:47:43;;;;;;;5.53;0.55;;;14.60;58.40;;;;;;4995341;28;20050;-70
2021/06/04 08:50:40;;;;;;;2.13;0.63;;;14.60;58.40;;;;;;4985225;28;20049;-70
2021/06/04 08:53:23;;;;;;;5.20;0.70;;;14.60;58.00;;;;;;4998791;28;20053;-70
2021/06/04 08:55:54;;;;;;;5.28;0.73;;;14.60;58.10;;;;;;5014605;28;20052;-70
2021/06/04 08:58:36;;;;;;;7.03;1.27;;;14.60;57.90;;;;;;5015292;28;20046;-70
2021/06/04 09:01:12;;;;;;;5.05;0.70;;;14.60;57.60;;;;;;5014566;28;20133;-70
2021/06/04 09:04:03;;;;;;;6.30;0.90;;;14.70;57.50;;;;;;5003236;28;20050;-70
2021/06/04 09:06:33;;;;;;;2.80;0.70;;;14.70;57.60;;;;;;5007926;28;20065;-71
2021/06/04 09:09:09;;;;;;;5.57;1.20;;;14.80;57.60;;;;;;5014576;28;20069;-71
2021/06/04 09:11:39;;;;;;;18.95;0.80;;;14.80;57.50;;;;;;5015958;28;20498;-71
2021/06/04 09:14:09;;;;;;;3.22;0.80;;;14.80;57.40;;;;;;5013551;28;20056;-70
2021/06/04 09:16:37;;;;;;;2.60;0.70;;;14.90;57.30;;;;;;5015042;28;20072;-69
2021/06/04 09:19:23;;;;;;;2.38;0.75;;;14.90;57.30;;;;;;5015531;28;20054;-69
2021/06/04 09:21:51;;;;;;;3.65;0.88;;;15.00;56.90;;;;;;4994231;28;20054;-71
2021/06/04 09:24:34;;;;;;;2.25;0.60;;;15.00;56.90;;;;;;4995597;28;20408;-70
2021/06/04 09:27:03;;;;;;;5.53;0.73;;;15.00;56.20;;;;;;4977572;28;20050;-70
2021/06/04 09:29:32;;;;;;;6.38;0.90;;;15.00;56.00;;;;;;4995458;28;20066;-70
2021/06/04 09:32:23;;;;;;;4.32;0.80;;;15.10;55.60;;;;;;4995262;28;20058;-70
2021/06/04 09:35:10;;;;;;;3.95;0.73;;;15.10;55.60;;;;;;4994512;28;20055;-71
2021/06/04 09:37:39;;;;;;;3.47;0.95;;;15.30;55.60;;;;;;4995287;28;20356;-70
2021/06/04 09:40:10;;;;;;;3.90;0.60;;;15.30;55.60;;;;;;4994842;28;20050;-70
2021/06/04 09:43:10;;;;;;;2.80;0.60;;;15.30;55.40;;;;;;4995293;28;20050;-71
2021/06/04 09:45:43;;;;;;;2.33;0.60;;;15.40;54.50;;;;;;4995090;28;20053;-71
2021/06/04 09:48:28;;;;;;;;;;;15.50;54.70;;;;;;4993666;28;20054;-69
2021/06/04 09:51:12;;;;;;;2.75;0.85;;;15.60;55.00;;;;;;5007336;28;19932;-70
2021/06/04 09:53:41;;;;;;;2.40;0.50;;;15.70;54.60;;;;;;4996942;28;20045;-70
2021/06/04 09:56:18;;;;;;;10.48;0.90;;;15.80;54.40;;;;;;5014570;28;20061;-70
2021/06/04 09:59:02;;;;;;;2.10;0.70;;;15.80;54.00;;;;;;5014785;28;20041;-70
2021/06/04 10:01:52;;;;;;;2.38;0.60;;;16.00;54.20;;;;;;5013003;28;20049;-70
2021/06/04 10:04:30;;;;;;;4.20;0.90;;;16.10;54.20;;;;;;4997733;28;20053;-71
2021/06/04 10:07:02;;;;;;;2.50;0.75;;;16.20;53.90;;;;;;4996788;28;20045;-70
2021/06/04 10:09:42;;;;;;;4.22;0.82;;;16.30;53.90;;;;;;4981104;28;20057;-71
2021/06/04 10:12:30;;;;;;;4.38;0.70;;;16.40;53.80;;;;;;5014261;28;20369;-71
2021/06/04 10:15:02;;;;;;;4.25;0.90;;;16.50;53.80;;;;;;4996925;28;20049;-70
2021/06/04 10:17:40;;;;;;;3.53;0.60;;;16.60;53.60;;;;;;5014384;28;20046;-70
2021/06/04 10:20:27;;;;;;;2.00;0.70;;;16.70;53.00;;;;;;5013082;28;20384;-71
2021/06/04 10:23:09;;;;;;;2.80;0.82;;;16.80;52.00;;;;;;5014826;28;20058;-69
2021/06/04 10:26:02;;;;;;;4.15;0.68;;;16.90;51.70;;;;;;5014513;28;20054;-70
2021/06/04 10:28:36;;;;;;;2.13;0.80;;;17.00;51.40;;;;;;4980635;28;20383;-71
2021/06/04 10:31:30;;;;;;;2.90;0.88;;;17.10;50.70;;;;;;4997546;28;20053;-71
2021/06/04 10:34:09;;;;;;;5.60;0.63;;;17.00;50.60;;;;;;4996410;28;20468;-70
2021/06/04 10:36:42;;;;;;;3.10;0.77;;;17.00;50.90;;;;;;4997983;28;20046;-70
2021/06/04 10:39:18;;;;;;;14.32;1.10;;;17.10;51.40;;;;;;5014658;28;20046;-70
2021/06/04 10:42:01;;;;;;;6.50;0.85;;;17.30;51.50;;;;;;5013590;28;20072;-71
2021/06/04 10:44:51;;;;;;;4.43;0.80;;;17.40;51.50;;;;;;5014331;28;20383;-71
2021/06/04 10:47:45;;;;;;;4.68;0.80;;;17.70;51.00;;;;;;4996185;28;20068;-71
2021/06/04 10:50:24;;;;;;;2.22;0.70;;;17.80;49.80;;;;;;5014157;28;20064;-70
2021/06/04 10:53:10;;;;;;;2.65;0.80;;;18.00;49.30;;;;;;5014245;28;20456;-69
2021/06/04 10:55:54;;;;;;;2.58;0.70;;;18.30;48.70;;;;;;5013321;28;20049;-70
2021/06/04 10:58:36;;;;;;;5.10;0.82;;;18.50;48.20;;;;;;5014942;28;20470;-71
2021/06/04 11:01:08;;;;;;;2.10;0.93;;;18.60;47.30;;;;;;5016098;28;20050;-70
2021/06/04 11:04:19;;;;;;;3.58;0.77;;;18.60;46.90;;;;;;5016945;28;20054;-70
2021/06/04 11:07:10;;;;;;;2.15;1.05;;;18.70;46.50;;;;;;4995393;28;20380;-69
2021/06/04 11:10:03;;;;;;;5.60;1.05;;;18.70;46.80;;;;;;5017842;28;20472;-70
2021/06/04 11:12:55;;;;;;;2.72;0.93;;;18.80;47.00;;;;;;5018177;28;20065;-71
2021/06/04 11:15:59;;;;;;;4.40;0.95;;;18.80;47.00;;;;;;5000223;28;20365;-69
2021/06/04 11:19:04;;;;;;;2.15;0.80;;;18.80;47.10;;;;;;5009226;28;20072;-71
2021/06/04 11:21:52;;;;;;;2.72;0.60;;;18.70;46.20;;;;;;5016118;28;20069;-69
2021/06/04 11:24:32;;;;;;;5.45;0.90;;;18.60;46.10;;;;;;5017299;28;20088;-70
2021/06/04 11:27:00;;;;;;;5.07;0.90;;;18.60;45.70;;;;;;5016716;28;20054;-71
2021/06/04 11:29:34;;;;;;;8.13;0.93;;;18.60;45.90;;;;;;4999838;28;20050;-70
2021/06/04 11:32:07;;;;;;;2.72;0.80;;;18.60;46.30;;;;;;5017175;28;20468;-71
2021/06/04 11:34:48;;;;;;;3.75;0.75;;;18.60;46.40;;;;;;5016340;28;20058;-70
2021/06/04 11:37:31;;;;;;;1.90;0.90;;;18.60;46.10;;;;;;5017175;28;20057;-71
2021/06/04 11:40:29;;;;;;;4.57;0.73;;;18.70;45.60;;;;;;5015297;28;20061;-70
2021/06/04 11:43:04;;;;;;;3.28;0.93;;;18.70;45.80;;;;;;5016872;28;20060;-70
2021/06/04 11:45:34;;;;;;;6.15;0.70;;;18.80;45.40;;;;;;5016965;28;20042;-71
2021/06/04 11:48:20;;;;;;;4.82;1.00;;;18.90;45.10;;;;;;5016394;28;20353;-70
2021/06/04 11:50:49;;;;;;;2.67;1.20;;;19.10;45.40;;;;;;5016731;28;20053;-71
2021/06/04 11:53:32;;;;;;;2.28;0.90;;;19.30;45.50;;;;;;5016703;28;20054;-70
2021/06/04 11:56:31;;;;;;;6.85;0.90;;;19.30;44.90;;;;;;5016987;28;20050;-69
2021/06/04 11:58:59;;;;;;;2.33;0.77;;;19.50;44.80;;;;;;5016423;28;20049;-71
2021/06/04 12:02:00;;;;;;;2.60;0.85;;;19.60;44.30;;;;;;4998395;28;20045;-70
2021/06/04 12:04:33;;;;;;;2.80;0.70;;;19.80;43.50;;;;;;4999356;28;20077;-71
2021/06/04 12:07:22;;;;;;;2.55;0.85;;;19.80;43.20;;;;;;5015007;28;20056;-69
2021/06/04 12:09:51;;;;;;;4.43;0.93;;;19.90;42.50;;;;;;5015505;28;20057;-70
2021/06/04 12:12:32;;;;;;;4.50;0.90;;;20.00;42.20;;;;;;5016586;28;20058;-71
2021/06/04 12:15:00;;;;;;;2.80;0.80;;;20.10;41.40;;;;;;4998631;28;20053;-70
2021/06/04 12:17:31;;;;;;;1.73;0.80;;;20.20;41.40;;;;;;5016111;28;20065;-70
2021/06/04 12:20:29;;;;;;;2.13;0.75;;;20.30;40.70;;;;;;5016292;28;20060;-71
2021/06/04 12:23:08;;;;;;;3.15;1.10;;;20.30;40.50;;;;;;5015937;28;20065;-70
2021/06/04 12:25:48;;;;;;;3.75;1.15;;;20.40;40.70;;;;;;5016668;28;20049;-71
2021/06/04 12:28:18;;;;;;;3.13;1.00;;;20.50;40.90;;;;;;4998148;28;20064;-71
2021/06/04 12:30:52;;;;;;;4.05;0.70;;;20.60;41.20;;;;;;4999065;28;20062;-70
2021/06/04 12:33:34;;;;;;;3.58;0.80;;;20.60;41.00;;;;;;5016846;28;20065;-70
2021/06/04 12:36:23;;;;;;;2.10;0.85;;;20.80;40.80;;;;;;5015517;28;20395;-70
2021/06/04 12:38:51;;;;;;;1.98;0.70;;;20.80;41.00;;;;;;5014322;28;20046;-70
2021/06/04 12:41:25;;;;;;;3.03;1.10;;;21.00;41.40;;;;;;4995510;28;20456;-70
2021/06/04 12:43:53;;;;;;;4.22;1.00;;;21.00;41.20;;;;;;5016420;28;20062;-71
2021/06/04 12:46:23;;;;;;;4.05;1.17;;;21.20;41.40;;;;;;5015924;28;20050;-69
2021/06/04 12:49:09;;;;;;;2.13;0.90;;;21.30;41.20;;;;;;5015325;28;20057;-70
2021/06/04 12:51:46;;;;;;;2.00;0.90;;;21.50;41.20;;;;;;5015675;28;20046;-69
2021/06/04 12:54:24;;;;;;;3.50;0.60;;;21.60;40.90;;;;;;4997917;28;20053;-71
2021/06/04 12:56:58;;;;;;;2.60;0.80;;;21.70;40.20;;;;;;5015316;28;20361;-70
2021/06/04 12:59:29;;;;;;;2.15;0.70;;;21.80;39.70;;;;;;4995054;28;20053;-70
2021/06/04 13:02:11;;;;;;;3.92;0.65;;;21.80;39.10;;;;;;4994798;28;20054;-71
2021/06/04 13:04:46;;;;;;;3.42;0.90;;;21.80;38.40;;;;;;4996542;28;20050;-69
2021/06/04 13:07:25;;;;;;;4.30;0.95;;;21.80;38.40;;;;;;4986561;28;20069;-70
2021/06/04 13:10:01;;;;;;;2.58;0.80;;;21.90;38.30;;;;;;5015802;28;20053;-71
2021/06/04 13:12:32;;;;;;;1.95;0.73;;;22.00;38.00;;;;;;5015026;28;20387;-70
2021/06/04 13:15:17;;;;;;;4.78;0.50;;;22.10;38.00;;;;;;4997342;28;20056;-70
2021/06/04 13:17:53;;;;;;;2.03;0.50;;;22.30;37.70;;;;;;5015141;28;20050;-71
2021/06/04 13:20:27;;;;;;;8.02;0.70;;;22.40;37.30;;;;;;5013812;28;20415;-70
2021/06/04 13:23:25;;;;;;;3.58;0.90;;;22.60;37.30;;;;;;4998078;28;20381;-71
2021/06/04 13:26:12;;;;;;;4.65;0.85;;;22.70;36.70;;;;;;5015680;28;20490;-71
2021/06/04 13:28:46;;;;;;;1.73;0.95;;;22.80;36.50;;;;;;5014397;28;20061;-71
2021/06/04 13:31:25;;;;;;;2.88;1.10;;;22.90;36.50;;;;;;5014804;28;20076;-71
2021/06/04 13:34:00;;;;;;;4.65;0.68;;;23.00;36.90;;;;;;4981186;28;20046;-70
2021/06/04 13:36:29;;;;;;;1.98;0.60;;;23.10;37.00;;;;;;4965013;28;20057;-71
2021/06/04 13:39:08;;;;;;;3.00;0.98;;;23.30;36.70;;;;;;5015152;28;20058;-70
2021/06/04 13:41:45;;;;;;;1.80;0.75;;;23.50;36.50;;;;;;5013979;28;20487;-71
2021/06/04 13:44:17;;;;;;;2.30;0.50;;;23.70;36.30;;;;;;4997786;28;20376;-70